sensor_id;sensor_type;location;lat;lon;timestamp;temperature;humidity
66831;DHT22;53739;44.224;22.528;2022-09-01T00:56:36;512.00;2380.80
66831;DHT22;53739;44.224;22.528;2022-09-01T00:59:06;487.30;2380.80
66831;DHT22;53739;44.224;22.528;2022-09-01T01:46:24;486.80;2380.80
66831;DHT22;53739;44.224;22.528;2022-09-01T01:48:51;486.70;2380.80
66831;DHT22;53739;44.224;22.528;2022-09-01T05:28:52;538.10;2406.40
66831;DHT22;53739;44.224;22.528;2022-09-01T05:31:18;538.00;2406.40
66831;DHT22;53739;44.224;22.528;2022-09-01T05:33:46;538.00;2406.40
66831;DHT22;53739;44.224;22.528;2022-09-01T05:36:15;537.90;2406.40
66831;DHT22;53739;44.224;22.528;2022-09-01T05:38:43;538.00;2406.40
66831;DHT22;53739;44.224;22.528;2022-09-01T05:41:11;538.30;2406.40
66831;DHT22;53739;44.224;22.528;2022-09-01T05:43:44;538.20;2406.40
66831;DHT22;53739;44.224;22.528;2022-09-01T05:46:20;538.10;2406.40
66831;DHT22;53739;44.224;22.528;2022-09-01T05:48:49;538.20;2406.40
66831;DHT22;53739;44.224;22.528;2022-09-01T05:51:18;538.20;2406.40
66831;DHT22;53739;44.224;22.528;2022-09-01T05:53:48;538.30;2406.40
66831;DHT22;53739;44.224;22.528;2022-09-01T05:56:18;538.50;2406.40
66831;DHT22;53739;44.224;22.528;2022-09-01T06:48:21;563.60;2432.00
66831;DHT22;53739;44.224;22.528;2022-09-01T06:50:48;563.60;2432.00
66831;DHT22;53739;44.224;22.528;2022-09-01T06:53:14;563.50;2432.00
66831;DHT22;53739;44.224;22.528;2022-09-01T06:55:46;563.50;2432.00
66831;DHT22;53739;44.224;22.528;2022-09-01T06:58:13;563.40;2432.00
66831;DHT22;53739;44.224;22.528;2022-09-01T07:00:41;563.50;2432.00
66831;DHT22;53739;44.224;22.528;2022-09-01T07:03:14;563.40;2432.00
66831;DHT22;53739;44.224;22.528;2022-09-01T07:05:42;563.50;2432.00
66831;DHT22;53739;44.224;22.528;2022-09-01T07:08:11;563.50;2432.00
66831;DHT22;53739;44.224;22.528;2022-09-01T07:10:43;563.50;2432.00
66831;DHT22;53739;44.224;22.528;2022-09-01T07:13:14;563.60;2432.00
66831;DHT22;53739;44.224;22.528;2022-09-01T07:15:46;563.60;2432.00
66831;DHT22;53739;44.224;22.528;2022-09-01T07:18:17;563.70;2432.00
66831;DHT22;53739;44.224;22.528;2022-09-01T07:20:46;563.70;2432.00
66831;DHT22;53739;44.224;22.528;2022-09-01T07:23:14;563.80;2432.00
66831;DHT22;53739;44.224;22.528;2022-09-01T07:25:44;563.90;2432.00
66831;DHT22;53739;44.224;22.528;2022-09-01T07:28:11;563.90;2432.00
66831;DHT22;53739;44.224;22.528;2022-09-01T07:30:50;563.80;2432.00
66831;DHT22;53739;44.224;22.528;2022-09-01T07:33:18;563.80;2432.00
66831;DHT22;53739;44.224;22.528;2022-09-01T07:35:48;563.80;2432.00
66831;DHT22;53739;44.224;22.528;2022-09-01T07:38:14;563.80;2432.00
66831;DHT22;53739;44.224;22.528;2022-09-01T07:40:44;563.90;2432.00
66831;DHT22;53739;44.224;22.528;2022-09-01T07:43:23;563.80;2432.00
66831;DHT22;53739;44.224;22.528;2022-09-01T07:45:52;563.90;2432.00
66831;DHT22;53739;44.224;22.528;2022-09-01T07:48:21;563.80;2432.00
66831;DHT22;53739;44.224;22.528;2022-09-01T07:50:50;563.80;2432.00
66831;DHT22;53739;44.224;22.528;2022-09-01T07:53:23;563.90;2432.00
66831;DHT22;53739;44.224;22.528;2022-09-01T07:55:51;563.90;2432.00
66831;DHT22;53739;44.224;22.528;2022-09-01T07:58:22;563.80;2432.00
66831;DHT22;53739;44.224;22.528;2022-09-01T08:00:49;563.70;2432.00
66831;DHT22;53739;44.224;22.528;2022-09-01T08:03:17;563.70;2432.00
66831;DHT22;53739;44.224;22.528;2022-09-01T08:05:43;563.70;2432.00
66831;DHT22;53739;44.224;22.528;2022-09-01T08:08:10;563.60;2432.00
66831;DHT22;53739;44.224;22.528;2022-09-01T08:10:40;563.60;2432.00
66831;DHT22;53739;44.224;22.528;2022-09-01T08:13:07;563.40;2432.00
66831;DHT22;53739;44.224;22.528;2022-09-01T08:15:37;563.50;2432.00
66831;DHT22;53739;44.224;22.528;2022-09-01T08:18:03;563.70;2432.00
66831;DHT22;53739;44.224;22.528;2022-09-01T08:20:29;563.70;2432.00
66831;DHT22;53739;44.224;22.528;2022-09-01T08:22:55;563.90;2432.00
66831;DHT22;53739;44.224;22.528;2022-09-01T08:25:21;563.90;2432.00
66831;DHT22;53739;44.224;22.528;2022-09-01T08:27:47;563.90;2432.00
66831;DHT22;53739;44.224;22.528;2022-09-01T08:30:13;564.00;2432.00
66831;DHT22;53739;44.224;22.528;2022-09-01T08:32:39;563.80;2432.00
66831;DHT22;53739;44.224;22.528;2022-09-01T08:35:09;563.90;2432.00
66831;DHT22;53739;44.224;22.528;2022-09-01T08:37:35;563.90;2432.00
66831;DHT22;53739;44.224;22.528;2022-09-01T08:40:03;563.90;2432.00
66831;DHT22;53739;44.224;22.528;2022-09-01T08:42:35;564.00;2432.00
66831;DHT22;53739;44.224;22.528;2022-09-01T08:45:56;564.00;2432.00
66831;DHT22;53739;44.224;22.528;2022-09-01T08:56:27;588.80;2432.00
66831;DHT22;53739;44.224;22.528;2022-09-01T08:58:53;564.10;2432.00
66831;DHT22;53739;44.224;22.528;2022-09-01T09:01:54;564.10;2432.00
66831;DHT22;53739;44.224;22.528;2022-09-01T09:10:02;564.10;2432.00
66831;DHT22;53739;44.224;22.528;2022-09-01T09:12:45;564.10;2432.00
66831;DHT22;53739;44.224;22.528;2022-09-01T09:15:39;588.80;2432.00
66831;DHT22;53739;44.224;22.528;2022-09-01T09:25:58;589.10;2432.00
66831;DHT22;53739;44.224;22.528;2022-09-01T09:28:24;588.90;2432.00
66831;DHT22;53739;44.224;22.528;2022-09-01T09:30:50;589.00;2432.00
66831;DHT22;53739;44.224;22.528;2022-09-01T09:33:35;589.00;2432.00
66831;DHT22;53739;44.224;22.528;2022-09-01T09:36:20;589.00;2432.00
66831;DHT22;53739;44.224;22.528;2022-09-01T09:38:51;589.00;2432.00
66831;DHT22;53739;44.224;22.528;2022-09-01T09:41:27;589.00;2432.00
66831;DHT22;53739;44.224;22.528;2022-09-01T09:44:16;589.00;2432.00
66831;DHT22;53739;44.224;22.528;2022-09-01T09:46:45;589.00;2432.00
66831;DHT22;53739;44.224;22.528;2022-09-01T09:49:22;589.00;2432.00
66831;DHT22;53739;44.224;22.528;2022-09-01T09:54:32;589.00;2432.00
66831;DHT22;53739;44.224;22.528;2022-09-01T09:59:48;589.00;2432.00
66831;DHT22;53739;44.224;22.528;2022-09-01T10:02:31;589.30;2432.00
66831;DHT22;53739;44.224;22.528;2022-09-01T10:05:00;589.30;2432.00
66831;DHT22;53739;44.224;22.528;2022-09-01T10:07:36;589.20;2432.00
66831;DHT22;53739;44.224;22.528;2022-09-01T10:10:25;589.20;2432.00
66831;DHT22;53739;44.224;22.528;2022-09-01T10:12:52;589.20;2432.00
66831;DHT22;53739;44.224;22.528;2022-09-01T10:15:21;589.20;2432.00
66831;DHT22;53739;44.224;22.528;2022-09-01T10:17:51;589.30;2432.00
66831;DHT22;53739;44.224;22.528;2022-09-01T10:20:24;589.40;2432.00
66831;DHT22;53739;44.224;22.528;2022-09-01T10:22:51;589.60;2432.00
66831;DHT22;53739;44.224;22.528;2022-09-01T10:25:20;589.70;2432.00
66831;DHT22;53739;44.224;22.528;2022-09-01T10:27:54;589.60;2432.00
66831;DHT22;53739;44.224;22.528;2022-09-01T10:30:22;589.70;2432.00
66831;DHT22;53739;44.224;22.528;2022-09-01T10:32:56;589.70;2432.00
66831;DHT22;53739;44.224;22.528;2022-09-01T10:35:34;589.70;2432.00
66831;DHT22;53739;44.224;22.528;2022-09-01T10:38:05;589.70;2432.00
66831;DHT22;53739;44.224;22.528;2022-09-01T10:40:44;589.70;2432.00
66831;DHT22;53739;44.224;22.528;2022-09-01T10:43:27;589.70;2432.00
66831;DHT22;53739;44.224;22.528;2022-09-01T10:45:57;589.50;2432.00
66831;DHT22;53739;44.224;22.528;2022-09-01T10:48:32;589.40;2432.00
66831;DHT22;53739;44.224;22.528;2022-09-01T11:04:13;589.70;2432.00
66831;DHT22;53739;44.224;22.528;2022-09-01T11:17:31;614.80;2432.00
66831;DHT22;53739;44.224;22.528;2022-09-01T11:22:36;614.90;2432.00
66831;DHT22;53739;44.224;22.528;2022-09-01T11:30:20;614.80;2432.00
66831;DHT22;53739;44.224;22.528;2022-09-01T11:32:50;614.80;2432.00
66831;DHT22;53739;44.224;22.528;2022-09-01T11:35:20;615.00;2432.00
66831;DHT22;53739;44.224;22.528;2022-09-01T11:37:54;615.00;2432.00
66831;DHT22;53739;44.224;22.528;2022-09-01T11:40:26;615.10;2432.00
66831;DHT22;53739;44.224;22.528;2022-09-01T11:42:55;615.10;2432.00
66831;DHT22;53739;44.224;22.528;2022-09-01T11:45:25;615.20;2432.00
66831;DHT22;53739;44.224;22.528;2022-09-01T11:48:02;615.30;2432.00
66831;DHT22;53739;44.224;22.528;2022-09-01T11:50:39;615.30;2432.00
66831;DHT22;53739;44.224;22.528;2022-09-01T11:53:13;640.00;2432.00
66831;DHT22;53739;44.224;22.528;2022-09-01T11:55:43;640.00;2432.00
66831;DHT22;53739;44.224;22.528;2022-09-01T11:58:28;640.00;2432.00
66831;DHT22;53739;44.224;22.528;2022-09-01T12:01:33;615.20;2432.00
66831;DHT22;53739;44.224;22.528;2022-09-01T12:04:19;615.20;2432.00
66831;DHT22;53739;44.224;22.528;2022-09-01T12:07:00;615.20;2432.00
66831;DHT22;53739;44.224;22.528;2022-09-01T12:09:35;615.20;2432.00
66831;DHT22;53739;44.224;22.528;2022-09-01T12:12:02;615.30;2432.00
66831;DHT22;53739;44.224;22.528;2022-09-01T12:14:28;640.00;2432.00
66831;DHT22;53739;44.224;22.528;2022-09-01T12:17:01;640.10;2432.00
66831;DHT22;53739;44.224;22.528;2022-09-01T12:22:17;640.50;2432.00
66831;DHT22;53739;44.224;22.528;2022-09-01T12:24:46;640.40;2432.00
66831;DHT22;53739;44.224;22.528;2022-09-01T12:27:13;640.40;2432.00
66831;DHT22;53739;44.224;22.528;2022-09-01T12:29:39;640.50;2432.00
66831;DHT22;53739;44.224;22.528;2022-09-01T12:32:05;640.60;2432.00
66831;DHT22;53739;44.224;22.528;2022-09-01T12:35:00;640.60;2432.00
66831;DHT22;53739;44.224;22.528;2022-09-01T12:37:27;640.70;2432.00
66831;DHT22;53739;44.224;22.528;2022-09-01T12:39:55;640.70;2432.00
66831;DHT22;53739;44.224;22.528;2022-09-01T12:42:30;665.60;2432.00
66831;DHT22;53739;44.224;22.528;2022-09-01T12:45:03;665.60;2432.00
66831;DHT22;53739;44.224;22.528;2022-09-01T12:52:56;666.00;2432.00
66831;DHT22;53739;44.224;22.528;2022-09-01T12:55:25;665.90;2432.00
66831;DHT22;53739;44.224;22.528;2022-09-01T12:57:58;665.90;2432.00
66831;DHT22;53739;44.224;22.528;2022-09-01T13:00:31;665.70;2432.00
66831;DHT22;53739;44.224;22.528;2022-09-01T13:03:12;665.70;2432.00
66831;DHT22;53739;44.224;22.528;2022-09-01T13:05:41;665.70;2432.00
66831;DHT22;53739;44.224;22.528;2022-09-01T13:08:11;665.70;2432.00
66831;DHT22;53739;44.224;22.528;2022-09-01T13:10:43;665.90;2432.00
66831;DHT22;53739;44.224;22.528;2022-09-01T13:13:11;665.90;2432.00
66831;DHT22;53739;44.224;22.528;2022-09-01T13:15:41;665.70;2432.00
66831;DHT22;53739;44.224;22.528;2022-09-01T13:18:08;665.70;2432.00
66831;DHT22;53739;44.224;22.528;2022-09-01T13:20:34;665.70;2432.00
66831;DHT22;53739;44.224;22.528;2022-09-01T13:23:01;665.90;2432.00
66831;DHT22;53739;44.224;22.528;2022-09-01T13:25:27;665.90;2432.00
66831;DHT22;53739;44.224;22.528;2022-09-01T13:27:53;665.90;2432.00
66831;DHT22;53739;44.224;22.528;2022-09-01T13:30:22;666.00;2432.00
66831;DHT22;53739;44.224;22.528;2022-09-01T13:32:49;666.20;2432.00
66831;DHT22;53739;44.224;22.528;2022-09-01T13:35:18;666.20;2432.00
66831;DHT22;53739;44.224;22.528;2022-09-01T13:37:45;666.30;2432.00
66831;DHT22;53739;44.224;22.528;2022-09-01T13:40:21;666.20;2432.00
66831;DHT22;53739;44.224;22.528;2022-09-01T13:42:50;666.20;2432.00
66831;DHT22;53739;44.224;22.528;2022-09-01T13:45:18;666.20;2432.00
66831;DHT22;53739;44.224;22.528;2022-09-01T13:47:47;666.10;2432.00
66831;DHT22;53739;44.224;22.528;2022-09-01T13:50:16;666.00;2432.00
66831;DHT22;53739;44.224;22.528;2022-09-01T13:52:46;666.00;2432.00
66831;DHT22;53739;44.224;22.528;2022-09-01T13:55:15;666.00;2432.00
66831;DHT22;53739;44.224;22.528;2022-09-01T13:57:42;666.10;2432.00
66831;DHT22;53739;44.224;22.528;2022-09-01T14:00:10;666.00;2432.00
66831;DHT22;53739;44.224;22.528;2022-09-01T14:03:02;666.20;2432.00
66831;DHT22;53739;44.224;22.528;2022-09-01T14:05:31;666.30;2432.00
66831;DHT22;53739;44.224;22.528;2022-09-01T14:08:06;666.20;2432.00
66831;DHT22;53739;44.224;22.528;2022-09-01T14:10:45;666.20;2432.00
66831;DHT22;53739;44.224;22.528;2022-09-01T14:13:13;666.10;2432.00
66831;DHT22;53739;44.224;22.528;2022-09-01T14:15:41;666.20;2432.00
66831;DHT22;53739;44.224;22.528;2022-09-01T14:18:07;666.20;2432.00
66831;DHT22;53739;44.224;22.528;2022-09-01T14:20:37;666.20;2432.00
66831;DHT22;53739;44.224;22.528;2022-09-01T14:23:06;666.20;2432.00
66831;DHT22;53739;44.224;22.528;2022-09-01T14:25:33;666.20;2432.00
66831;DHT22;53739;44.224;22.528;2022-09-01T14:28:00;666.20;2432.00
66831;DHT22;53739;44.224;22.528;2022-09-01T14:30:28;666.20;2432.00
66831;DHT22;53739;44.224;22.528;2022-09-01T14:32:54;666.20;2432.00
66831;DHT22;53739;44.224;22.528;2022-09-01T14:35:22;666.00;2432.00
66831;DHT22;53739;44.224;22.528;2022-09-01T14:37:58;666.00;2432.00
66831;DHT22;53739;44.224;22.528;2022-09-01T14:40:25;666.00;2432.00
66831;DHT22;53739;44.224;22.528;2022-09-01T14:42:53;665.90;2432.00
66831;DHT22;53739;44.224;22.528;2022-09-01T14:45:22;665.90;2432.00
66831;DHT22;53739;44.224;22.528;2022-09-01T14:47:52;665.70;2432.00
66831;DHT22;53739;44.224;22.528;2022-09-01T14:50:19;665.60;2432.00
66831;DHT22;53739;44.224;22.528;2022-09-01T14:52:46;665.60;2432.00
66831;DHT22;53739;44.224;22.528;2022-09-01T14:55:29;665.60;2432.00
66831;DHT22;53739;44.224;22.528;2022-09-01T14:57:55;665.60;2432.00
66831;DHT22;53739;44.224;22.528;2022-09-01T15:00:22;665.60;2432.00
66831;DHT22;53739;44.224;22.528;2022-09-01T15:02:53;665.60;2432.00
66831;DHT22;53739;44.224;22.528;2022-09-01T15:05:19;665.60;2432.00
66831;DHT22;53739;44.224;22.528;2022-09-01T15:07:46;640.90;2432.00
66831;DHT22;53739;44.224;22.528;2022-09-01T15:10:14;640.90;2432.00
66831;DHT22;53739;44.224;22.528;2022-09-01T15:12:41;640.80;2432.00
66831;DHT22;53739;44.224;22.528;2022-09-01T15:15:08;640.90;2432.00
66831;DHT22;53739;44.224;22.528;2022-09-01T15:17:34;640.60;2432.00
66831;DHT22;53739;44.224;22.528;2022-09-01T15:20:01;640.70;2432.00
66831;DHT22;53739;44.224;22.528;2022-09-01T15:22:46;640.70;2432.00
66831;DHT22;53739;44.224;22.528;2022-09-01T15:25:13;640.60;2432.00
66831;DHT22;53739;44.224;22.528;2022-09-01T15:27:38;640.60;2432.00
66831;DHT22;53739;44.224;22.528;2022-09-01T15:30:05;640.50;2432.00
66831;DHT22;53739;44.224;22.528;2022-09-01T15:32:45;640.60;2432.00
66831;DHT22;53739;44.224;22.528;2022-09-01T15:35:12;640.50;2432.00
66831;DHT22;53739;44.224;22.528;2022-09-01T15:37:38;640.50;2432.00
66831;DHT22;53739;44.224;22.528;2022-09-01T15:40:06;640.50;2432.00
66831;DHT22;53739;44.224;22.528;2022-09-01T15:42:34;640.50;2432.00
66831;DHT22;53739;44.224;22.528;2022-09-01T15:45:02;640.40;2432.00
66831;DHT22;53739;44.224;22.528;2022-09-01T15:47:29;640.40;2432.00
66831;DHT22;53739;44.224;22.528;2022-09-01T15:49:55;640.20;2432.00
66831;DHT22;53739;44.224;22.528;2022-09-01T15:52:21;640.20;2432.00
66831;DHT22;53739;44.224;22.528;2022-09-01T15:54:47;640.10;2432.00
66831;DHT22;53739;44.224;22.528;2022-09-01T15:57:12;640.10;2432.00
66831;DHT22;53739;44.224;22.528;2022-09-01T15:59:38;640.10;2432.00
66831;DHT22;53739;44.224;22.528;2022-09-01T16:02:08;640.10;2432.00
66831;DHT22;53739;44.224;22.528;2022-09-01T16:04:35;640.10;2432.00
66831;DHT22;53739;44.224;22.528;2022-09-01T16:07:01;640.10;2432.00
66831;DHT22;53739;44.224;22.528;2022-09-01T16:09:27;640.00;2432.00
66831;DHT22;53739;44.224;22.528;2022-09-01T16:11:53;615.30;2432.00
66831;DHT22;53739;44.224;22.528;2022-09-01T16:14:19;615.30;2432.00
66831;DHT22;53739;44.224;22.528;2022-09-01T16:17:04;615.30;2432.00
66831;DHT22;53739;44.224;22.528;2022-09-01T16:19:53;615.30;2432.00
66831;DHT22;53739;44.224;22.528;2022-09-01T16:22:36;615.20;2432.00
66831;DHT22;53739;44.224;22.528;2022-09-01T16:25:13;615.20;2432.00
66831;DHT22;53739;44.224;22.528;2022-09-01T16:27:42;615.10;2432.00
66831;DHT22;53739;44.224;22.528;2022-09-01T16:30:14;615.10;2432.00
66831;DHT22;53739;44.224;22.528;2022-09-01T16:32:47;615.00;2432.00
66831;DHT22;53739;44.224;22.528;2022-09-01T16:35:16;615.00;2432.00
66831;DHT22;53739;44.224;22.528;2022-09-01T16:38:07;614.90;2432.00
66831;DHT22;53739;44.224;22.528;2022-09-01T16:47:00;614.80;2432.00
66831;DHT22;53739;44.224;22.528;2022-09-01T16:52:26;614.70;2432.00
66831;DHT22;53739;44.224;22.528;2022-09-01T16:55:16;614.70;2432.00
66831;DHT22;53739;44.224;22.528;2022-09-01T17:01:02;614.60;2432.00
66831;DHT22;53739;44.224;22.528;2022-09-01T17:06:30;614.60;2432.00
66831;DHT22;53739;44.224;22.528;2022-09-01T17:09:29;614.50;2432.00
66831;DHT22;53739;44.224;22.528;2022-09-01T17:14:58;614.50;2432.00
66831;DHT22;53739;44.224;22.528;2022-09-01T17:17:54;614.40;2432.00
66831;DHT22;53739;44.224;22.528;2022-09-01T17:20:27;614.40;2432.00
66831;DHT22;53739;44.224;22.528;2022-09-01T17:22:56;614.50;2432.00
66831;DHT22;53739;44.224;22.528;2022-09-01T17:25:30;614.40;2432.00
66831;DHT22;53739;44.224;22.528;2022-09-01T17:28:04;614.40;2432.00
66831;DHT22;53739;44.224;22.528;2022-09-01T17:30:34;614.40;2432.00
66831;DHT22;53739;44.224;22.528;2022-09-01T17:33:23;614.40;2432.00
66831;DHT22;53739;44.224;22.528;2022-09-01T17:38:39;589.70;2432.00
66831;DHT22;53739;44.224;22.528;2022-09-01T17:46:44;589.60;2432.00
66831;DHT22;53739;44.224;22.528;2022-09-01T17:49:31;589.60;2432.00
66831;DHT22;53739;44.224;22.528;2022-09-01T17:55:16;589.50;2432.00
66831;DHT22;53739;44.224;22.528;2022-09-01T17:58:10;589.50;2432.00
66831;DHT22;53739;44.224;22.528;2022-09-01T18:01:02;589.40;2432.00
66831;DHT22;53739;44.224;22.528;2022-09-01T18:09:13;589.40;2432.00
66831;DHT22;53739;44.224;22.528;2022-09-01T18:12:00;589.40;2432.00
66831;DHT22;53739;44.224;22.528;2022-09-01T18:14:34;589.40;2432.00
66831;DHT22;53739;44.224;22.528;2022-09-01T18:17:19;589.40;2432.00
66831;DHT22;53739;44.224;22.528;2022-09-01T18:20:16;589.30;2432.00
66831;DHT22;53739;44.224;22.528;2022-09-01T18:22:51;589.30;2432.00
66831;DHT22;53739;44.224;22.528;2022-09-01T18:25:24;589.30;2432.00
66831;DHT22;53739;44.224;22.528;2022-09-01T18:27:50;589.30;2432.00
66831;DHT22;53739;44.224;22.528;2022-09-01T18:30:20;589.30;2432.00
66831;DHT22;53739;44.224;22.528;2022-09-01T18:36:07;589.30;2432.00
66831;DHT22;53739;44.224;22.528;2022-09-01T18:39:14;589.30;2432.00
66831;DHT22;53739;44.224;22.528;2022-09-01T18:41:54;589.30;2432.00
66831;DHT22;53739;44.224;22.528;2022-09-01T18:47:07;589.30;2432.00
66831;DHT22;53739;44.224;22.528;2022-09-01T18:57:59;589.20;2432.00
66831;DHT22;53739;44.224;22.528;2022-09-01T19:00:32;589.20;2432.00
66831;DHT22;53739;44.224;22.528;2022-09-01T19:03:33;589.20;2432.00
66831;DHT22;53739;44.224;22.528;2022-09-01T19:06:31;589.20;2432.00
66831;DHT22;53739;44.224;22.528;2022-09-01T19:09:06;589.20;2432.00
66831;DHT22;53739;44.224;22.528;2022-09-01T19:14:41;589.20;2432.00
66831;DHT22;53739;44.224;22.528;2022-09-01T19:20:06;589.20;2432.00
66831;DHT22;53739;44.224;22.528;2022-09-01T19:22:52;589.20;2432.00
66831;DHT22;53739;44.224;22.528;2022-09-01T19:25:21;589.10;2432.00
66831;DHT22;53739;44.224;22.528;2022-09-01T19:33:40;589.10;2432.00
66831;DHT22;53739;44.224;22.528;2022-09-01T19:36:11;589.10;2432.00
66831;DHT22;53739;44.224;22.528;2022-09-01T19:38:40;589.10;2432.00
66831;DHT22;53739;44.224;22.528;2022-09-01T19:43:41;589.10;2432.00
66831;DHT22;53739;44.224;22.528;2022-09-01T19:46:22;589.10;2432.00
66831;DHT22;53739;44.224;22.528;2022-09-01T19:52:13;589.10;2432.00
66831;DHT22;53739;44.224;22.528;2022-09-01T19:54:53;589.10;2432.00
66831;DHT22;53739;44.224;22.528;2022-09-01T19:58:22;589.10;2432.00
66831;DHT22;53739;44.224;22.528;2022-09-01T20:00:27;589.10;2432.00
66831;DHT22;53739;44.224;22.528;2022-09-01T20:03:05;589.20;2432.00
66831;DHT22;53739;44.224;22.528;2022-09-01T20:05:47;589.10;2432.00
66831;DHT22;53739;44.224;22.528;2022-09-01T20:08:34;589.10;2432.00
66831;DHT22;53739;44.224;22.528;2022-09-01T20:17:04;589.00;2432.00
66831;DHT22;53739;44.224;22.528;2022-09-01T20:25:04;589.10;2432.00
66831;DHT22;53739;44.224;22.528;2022-09-01T20:30:17;589.10;2432.00
66831;DHT22;53739;44.224;22.528;2022-09-01T20:37:54;589.10;2432.00
66831;DHT22;53739;44.224;22.528;2022-09-01T20:40:33;589.10;2432.00
66831;DHT22;53739;44.224;22.528;2022-09-01T20:43:18;589.00;2432.00
66831;DHT22;53739;44.224;22.528;2022-09-01T20:45:47;589.10;2432.00
66831;DHT22;53739;44.224;22.528;2022-09-01T20:48:24;589.10;2432.00
66831;DHT22;53739;44.224;22.528;2022-09-01T20:51:09;589.10;2432.00
66831;DHT22;53739;44.224;22.528;2022-09-01T21:05:37;589.00;2432.00
66831;DHT22;53739;44.224;22.528;2022-09-01T21:13:47;589.00;2432.00
66831;DHT22;53739;44.224;22.528;2022-09-01T21:22:12;588.90;2432.00
66831;DHT22;53739;44.224;22.528;2022-09-01T21:24:39;588.90;2432.00
66831;DHT22;53739;44.224;22.528;2022-09-01T21:27:19;588.90;2432.00
66831;DHT22;53739;44.224;22.528;2022-09-01T21:29:56;588.90;2432.00
66831;DHT22;53739;44.224;22.528;2022-09-01T21:32:25;588.90;2432.00
66831;DHT22;53739;44.224;22.528;2022-09-01T21:34:51;588.90;2432.00
66831;DHT22;53739;44.224;22.528;2022-09-01T21:37:18;588.90;2432.00
66831;DHT22;53739;44.224;22.528;2022-09-01T21:39:47;588.90;2432.00
66831;DHT22;53739;44.224;22.528;2022-09-01T21:42:25;588.90;2432.00
66831;DHT22;53739;44.224;22.528;2022-09-01T21:44:52;588.80;2432.00
66831;DHT22;53739;44.224;22.528;2022-09-01T21:47:19;588.90;2432.00
66831;DHT22;53739;44.224;22.528;2022-09-01T21:49:46;589.10;2432.00
66831;DHT22;53739;44.224;22.528;2022-09-01T21:52:12;588.90;2432.00
66831;DHT22;53739;44.224;22.528;2022-09-01T21:54:38;588.90;2432.00
66831;DHT22;53739;44.224;22.528;2022-09-01T21:57:04;588.90;2432.00
66831;DHT22;53739;44.224;22.528;2022-09-01T21:59:30;588.90;2432.00
66831;DHT22;53739;44.224;22.528;2022-09-01T22:01:56;588.90;2432.00
66831;DHT22;53739;44.224;22.528;2022-09-01T22:04:22;589.00;2432.00
66831;DHT22;53739;44.224;22.528;2022-09-01T22:06:49;589.00;2432.00
66831;DHT22;53739;44.224;22.528;2022-09-01T22:09:16;589.00;2432.00
66831;DHT22;53739;44.224;22.528;2022-09-01T22:11:42;588.90;2432.00
66831;DHT22;53739;44.224;22.528;2022-09-01T22:14:09;588.90;2432.00
66831;DHT22;53739;44.224;22.528;2022-09-01T22:16:36;588.90;2432.00
66831;DHT22;53739;44.224;22.528;2022-09-01T22:19:05;588.90;2432.00
66831;DHT22;53739;44.224;22.528;2022-09-01T22:21:35;588.90;2432.00
66831;DHT22;53739;44.224;22.528;2022-09-01T22:24:01;588.90;2432.00
66831;DHT22;53739;44.224;22.528;2022-09-01T22:26:30;588.90;2432.00
66831;DHT22;53739;44.224;22.528;2022-09-01T22:28:58;588.90;2432.00
66831;DHT22;53739;44.224;22.528;2022-09-01T22:31:26;588.80;2432.00
66831;DHT22;53739;44.224;22.528;2022-09-01T22:33:52;588.80;2432.00
66831;DHT22;53739;44.224;22.528;2022-09-01T22:36:33;588.80;2432.00
66831;DHT22;53739;44.224;22.528;2022-09-01T22:39:00;588.80;2432.00
66831;DHT22;53739;44.224;22.528;2022-09-01T22:41:28;564.10;2432.00
66831;DHT22;53739;44.224;22.528;2022-09-01T22:46:21;588.80;2432.00
66831;DHT22;53739;44.224;22.528;2022-09-01T22:48:47;564.10;2432.00
66831;DHT22;53739;44.224;22.528;2022-09-01T22:51:14;564.00;2432.00
66831;DHT22;53739;44.224;22.528;2022-09-01T22:53:41;564.00;2432.00
66831;DHT22;53739;44.224;22.528;2022-09-01T22:56:15;564.00;2432.00
66831;DHT22;53739;44.224;22.528;2022-09-01T22:58:42;564.00;2432.00
66831;DHT22;53739;44.224;22.528;2022-09-01T23:01:12;563.90;2432.00
66831;DHT22;53739;44.224;22.528;2022-09-01T23:03:40;564.00;2432.00
66831;DHT22;53739;44.224;22.528;2022-09-01T23:06:11;563.90;2432.00
66831;DHT22;53739;44.224;22.528;2022-09-01T23:08:38;564.00;2432.00
66831;DHT22;53739;44.224;22.528;2022-09-01T23:11:06;563.90;2432.00
66831;DHT22;53739;44.224;22.528;2022-09-01T23:13:33;564.00;2432.00
66831;DHT22;53739;44.224;22.528;2022-09-01T23:16:00;563.90;2432.00
66831;DHT22;53739;44.224;22.528;2022-09-01T23:18:28;563.90;2432.00
66831;DHT22;53739;44.224;22.528;2022-09-01T23:20:55;563.90;2432.00
66831;DHT22;53739;44.224;22.528;2022-09-01T23:23:21;563.90;2432.00
66831;DHT22;53739;44.224;22.528;2022-09-01T23:25:47;563.90;2432.00
66831;DHT22;53739;44.224;22.528;2022-09-01T23:28:14;563.90;2432.00
66831;DHT22;53739;44.224;22.528;2022-09-01T23:30:43;563.90;2432.00
66831;DHT22;53739;44.224;22.528;2022-09-01T23:33:12;564.00;2432.00
66831;DHT22;53739;44.224;22.528;2022-09-01T23:35:43;563.90;2432.00
66831;DHT22;53739;44.224;22.528;2022-09-01T23:38:10;563.90;2432.00
66831;DHT22;53739;44.224;22.528;2022-09-01T23:40:40;564.00;2432.00
66831;DHT22;53739;44.224;22.528;2022-09-01T23:43:07;563.90;2432.00
66831;DHT22;53739;44.224;22.528;2022-09-01T23:45:42;563.80;2432.00
66831;DHT22;53739;44.224;22.528;2022-09-01T23:48:09;563.80;2432.00
66831;DHT22;53739;44.224;22.528;2022-09-01T23:50:58;563.80;2432.00
66831;DHT22;53739;44.224;22.528;2022-09-01T23:53:29;563.70;2432.00
66831;DHT22;53739;44.224;22.528;2022-09-01T23:55:58;563.60;2432.00
66831;DHT22;53739;44.224;22.528;2022-09-01T23:58:25;563.70;2432.00
